Time;durP1;ratioP1;P1;durP2;ratioP2;P2;SDS_P1;SDS_P2;PMS_P1;PMS_P2;Temp;Humidity;BMP_temperature;BMP_pressure;BME280_temperature;BME280_humidity;BME280_pressure;Samples;Min_cycle;Max_cycle;Signal;HPM_P1;HPM_P2
2022/01/25 00:28:25;;;;;;;29.25;9.27;;;;;;;;;;7393115;19;20513;-80
2022/01/25 00:31:10;;;;;;;22.55;8.65;;;;;;;;;;7392530;19;20014;-80
2022/01/25 00:33:37;;;;;;;24.40;9.00;;;;;;;;;;7393008;19;20020;-80
2022/01/25 00:36:07;;;;;;;22.95;8.98;;;;;;;;;;7392379;19;20027;-80
2022/01/25 00:38:33;;;;;;;20.58;7.80;;;;;;;;;;7393371;19;20034;-79
2022/01/25 00:40:58;;;;;;;24.27;9.82;;;;;;;;;;7392007;19;20359;-80
2022/01/25 00:43:26;;;;;;;26.05;9.27;;;;;;;;;;7391404;19;20402;-79
2022/01/25 00:45:54;;;;;;;30.42;9.50;;;;;;;;;;7391779;19;20025;-80
2022/01/25 00:48:31;;;;;;;30.15;9.90;;;;;;;;;;7393604;19;20035;-79
2022/01/25 00:51:17;;;;;;;19.38;8.07;;;;;;;;;;7391525;19;20447;-80
2022/01/25 00:54:02;;;;;;;18.27;8.48;;;;;;;;;;7393509;19;20014;-79
2022/01/25 00:56:39;;;;;;;22.90;8.85;;;;;;;;;;7389816;19;20006;-79
2022/01/25 00:59:08;;;;;;;18.98;8.13;;;;;;;;;;7391236;19;20011;-80
2022/01/25 01:01:34;;;;;;;22.95;8.57;;;;;;;;;;7391686;19;20476;-80
2022/01/25 01:04:00;;;;;;;21.58;8.57;;;;;;;;;;7392615;19;20018;-80
2022/01/25 01:06:26;;;;;;;16.15;7.90;;;;;;;;;;7391585;19;20078;-79
2022/01/25 01:08:54;;;;;;;13.98;6.22;;;;;;;;;;7389382;19;20018;-80
2022/01/25 01:11:28;;;;;;;17.67;7.25;;;;;;;;;;7391530;19;20040;-80
2022/01/25 01:16:51;;;;;;;15.20;7.07;;;;;;;;;;7391628;19;20010;-79
2022/01/25 01:38:15;;;;;;;26.33;8.18;;;;;;;;;;7390562;19;20014;-80
2022/01/25 01:43:37;;;;;;;17.25;6.15;;;;;;;;;;7383212;19;20477;-80
2022/01/25 01:48:40;;;;;;;23.90;6.38;;;;;;;;;;7396761;19;20006;-79
2022/01/25 01:51:14;;;;;;;13.25;7.00;;;;;;;;;;7395074;19;20037;-80
2022/01/25 01:53:40;;;;;;;22.23;7.22;;;;;;;;;;7398486;19;19999;-80
2022/01/25 01:56:06;;;;;;;30.83;7.50;;;;;;;;;;7398636;19;20354;-80
2022/01/25 01:58:34;;;;;;;23.80;7.40;;;;;;;;;;7394651;19;20023;-79
2022/01/25 02:00:59;;;;;;;27.30;7.30;;;;;;;;;;7395006;19;20018;-80
2022/01/25 02:03:25;;;;;;;36.38;9.85;;;;;;;;;;7398705;19;20009;-79
2022/01/25 02:05:50;;;;;;;21.48;6.38;;;;;;;;;;7398417;19;20017;-80
2022/01/25 02:08:16;;;;;;;28.77;8.40;;;;;;;;;;7396112;19;19998;-80
2022/01/25 02:10:41;;;;;;;20.15;6.78;;;;;;;;;;7394774;19;20014;-79
2022/01/25 02:13:08;;;;;;;14.60;6.70;;;;;;;;;;7394786;19;20014;-80
2022/01/25 02:15:36;;;;;;;15.15;6.63;;;;;;;;;;7396885;19;20042;-80
2022/01/25 02:23:31;;;;;;;14.90;5.50;;;;;;;;;;7396007;19;20499;-80
2022/01/25 02:25:59;;;;;;;18.13;6.75;;;;;;;;;;7394183;19;20002;-80
2022/01/25 02:28:29;;;;;;;21.25;7.85;;;;;;;;;;7394317;19;20006;-80
2022/01/25 02:30:56;;;;;;;22.25;6.78;;;;;;;;;;7396484;19;20018;-80
2022/01/25 02:33:22;;;;;;;24.67;7.10;;;;;;;;;;7398485;19;20011;-80
2022/01/25 02:35:47;;;;;;;13.00;5.93;;;;;;;;;;7397805;19;20014;-80
2022/01/25 02:38:14;;;;;;;17.08;6.35;;;;;;;;;;7396240;19;20089;-80
2022/01/25 02:40:40;;;;;;;26.63;7.93;;;;;;;;;;7394718;19;20016;-80
2022/01/25 02:43:05;;;;;;;12.32;6.53;;;;;;;;;;7395435;19;20003;-80
2022/01/25 02:45:35;;;;;;;15.30;6.38;;;;;;;;;;7395824;19;20347;-80
2022/01/25 02:50:48;;;;;;;16.13;5.87;;;;;;;;;;7396224;19;20017;-81
2022/01/25 02:53:13;;;;;;;47.25;9.65;;;;;;;;;;7397326;19;20391;-80
2022/01/25 02:55:39;;;;;;;20.55;6.53;;;;;;;;;;7396466;19;20503;-80
2022/01/25 02:58:05;;;;;;;18.02;5.80;;;;;;;;;;7392960;19;20337;-80
2022/01/25 03:00:31;;;;;;;12.52;5.18;;;;;;;;;;7394336;19;20418;-80
2022/01/25 03:02:57;;;;;;;20.50;6.97;;;;;;;;;;7395744;19;20010;-79
2022/01/25 03:05:22;;;;;;;20.45;6.82;;;;;;;;;;7398024;19;20044;-80
2022/01/25 03:07:47;;;;;;;19.77;8.60;;;;;;;;;;7395424;19;20346;-80
2022/01/25 03:10:13;;;;;;;15.27;6.18;;;;;;;;;;7396158;19;20010;-80
2022/01/25 03:12:53;;;;;;;13.85;6.60;;;;;;;;;;7396110;19;20456;-80
2022/01/25 03:17:49;;;;;;;29.27;7.43;;;;;;;;;;7397321;19;20018;-81
2022/01/25 03:20:21;;;;;;;15.18;6.35;;;;;;;;;;7394093;19;20352;-81
2022/01/25 03:25:19;;;;;;;15.82;5.82;;;;;;;;;;7394469;19;20449;-80
2022/01/25 03:27:44;;;;;;;9.57;5.15;;;;;;;;;;7396920;19;20014;-79
2022/01/25 03:30:10;;;;;;;11.60;5.47;;;;;;;;;;7394678;19;20439;-79
2022/01/25 03:32:35;;;;;;;13.30;4.65;;;;;;;;;;7397236;19;20006;-80
2022/01/25 03:35:01;;;;;;;12.07;6.00;;;;;;;;;;7396573;19;20438;-80
2022/01/25 03:37:26;;;;;;;13.65;5.70;;;;;;;;;;7397804;19;20006;-80
2022/01/25 03:39:51;;;;;;;9.80;5.25;;;;;;;;;;7394009;19;20006;-80
2022/01/25 03:42:18;;;;;;;13.30;4.70;;;;;;;;;;7394982;19;20006;-80
2022/01/25 03:44:44;;;;;;;14.15;5.15;;;;;;;;;;7395859;19;20014;-81
2022/01/25 03:47:13;;;;;;;11.18;5.05;;;;;;;;;;7396972;19;20020;-80
2022/01/25 03:49:51;;;;;;;10.77;4.63;;;;;;;;;;7393782;19;20014;-80
2022/01/25 03:52:23;;;;;;;13.02;5.53;;;;;;;;;;7396270;19;20504;-80
2022/01/25 03:54:48;;;;;;;16.35;5.28;;;;;;;;;;7396952;19;20066;-81
2022/01/25 03:57:15;;;;;;;11.93;4.55;;;;;;;;;;7392797;19;20023;-80
2022/01/25 03:59:41;;;;;;;15.10;5.35;;;;;;;;;;7393270;19;20016;-80
2022/01/25 04:02:06;;;;;;;11.90;5.80;;;;;;;;;;7393044;19;20015;-80
2022/01/25 04:04:33;;;;;;;13.18;4.05;;;;;;;;;;7394371;19;20015;-80
2022/01/25 04:07:07;;;;;;;11.32;5.07;;;;;;;;;;7394572;19;20332;-79
2022/01/25 04:09:32;;;;;;;12.95;5.03;;;;;;;;;;7391083;19;20350;-79
2022/01/25 04:11:58;;;;;;;9.35;4.75;;;;;;;;;;7391727;19;20011;-80
2022/01/25 04:14:23;;;;;;;9.45;4.28;;;;;;;;;;7392936;19;20003;-80
2022/01/25 04:16:58;;;;;;;13.10;5.15;;;;;;;;;;7394677;19;20348;-80
2022/01/25 04:19:37;;;;;;;11.23;4.40;;;;;;;;;;7389889;19;20429;-80
2022/01/25 04:27:26;;;;;;;7.15;2.53;;;;;;;;;;7391546;19;20478;-80
2022/01/25 04:29:52;;;;;;;8.45;4.43;;;;;;;;;;7386885;19;20003;-79
2022/01/25 04:32:31;;;;;;;11.63;5.25;;;;;;;;;;7393366;19;20014;-79
2022/01/25 04:35:10;;;;;;;12.40;4.43;;;;;;;;;;7390972;19;20443;-78
2022/01/25 04:51:32;;;;;;;6.32;3.58;;;;;;;;;;7390959;19;20010;-79
2022/01/25 04:54:06;;;;;;;8.25;3.00;;;;;;;;;;7391146;19;20047;-78
2022/01/25 04:59:08;;;;;;;7.45;3.63;;;;;;;;;;7389765;19;20078;-78
2022/01/25 05:01:35;;;;;;;7.75;3.75;;;;;;;;;;7391345;19;19999;-79
2022/01/25 05:04:05;;;;;;;7.95;3.83;;;;;;;;;;7393979;19;20026;-79
2022/01/25 05:06:32;;;;;;;8.77;3.55;;;;;;;;;;7390053;19;20006;-79
2022/01/25 05:09:06;;;;;;;8.95;4.15;;;;;;;;;;7391295;19;20497;-79
2022/01/25 05:11:35;;;;;;;16.33;4.15;;;;;;;;;;7386990;19;20006;-78
2022/01/25 05:16:47;;;;;;;13.57;5.10;;;;;;;;;;7393257;19;20503;-77
2022/01/25 05:24:22;;;;;;;10.60;5.05;;;;;;;;;;7388701;19;20070;-79
2022/01/25 05:26:47;;;;;;;11.18;5.07;;;;;;;;;;7392818;19;20360;-79
2022/01/25 05:29:13;;;;;;;12.00;4.65;;;;;;;;;;7387820;19;20026;-79
2022/01/25 05:31:38;;;;;;;9.20;3.88;;;;;;;;;;7391439;19;20007;-80
2022/01/25 05:34:07;;;;;;;21.27;6.72;;;;;;;;;;7393352;19;20070;-79
2022/01/25 05:36:32;;;;;;;13.80;5.22;;;;;;;;;;7388986;19;20019;-80
2022/01/25 05:39:01;;;;;;;11.82;4.57;;;;;;;;;;7387114;19;20094;-79
2022/01/25 05:41:29;;;;;;;14.15;4.85;;;;;;;;;;7388811;19;20421;-78
2022/01/25 05:46:41;;;;;;;17.98;5.30;;;;;;;;;;7391169;19;20015;-79
2022/01/25 05:49:06;;;;;;;14.85;5.70;;;;;;;;;;7388017;19;20030;-79
2022/01/25 05:51:32;;;;;;;9.27;4.38;;;;;;;;;;7388201;19;20918;-79
2022/01/25 05:53:57;;;;;;;11.07;5.00;;;;;;;;;;7393394;19;20299;-79
2022/01/25 05:56:22;;;;;;;11.30;5.15;;;;;;;;;;7394483;19;19999;-79
2022/01/25 05:58:47;;;;;;;13.73;5.30;;;;;;;;;;7391245;19;19999;-79
2022/01/25 06:01:13;;;;;;;11.95;5.82;;;;;;;;;;7387878;19;20061;-80
2022/01/25 06:03:41;;;;;;;17.63;6.65;;;;;;;;;;7389588;19;20006;-80
2022/01/25 06:06:07;;;;;;;14.32;5.47;;;;;;;;;;7389103;19;20045;-79
2022/01/25 06:08:32;;;;;;;15.38;6.63;;;;;;;;;;7384994;19;20019;-79
2022/01/25 06:10:57;;;;;;;10.27;5.22;;;;;;;;;;7388987;19;20005;-79
2022/01/25 06:13:22;;;;;;;10.18;4.57;;;;;;;;;;7389315;19;20445;-80
2022/01/25 06:15:47;;;;;;;16.63;5.80;;;;;;;;;;7391859;19;20066;-79
2022/01/25 06:18:13;;;;;;;18.15;5.60;;;;;;;;;;7350792;19;20030;-80
2022/01/25 06:20:38;;;;;;;22.05;7.80;;;;;;;;;;7387238;19;20480;-79
2022/01/25 06:23:03;;;;;;;10.43;5.28;;;;;;;;;;7389362;19;20053;-80
2022/01/25 06:25:29;;;;;;;15.90;5.60;;;;;;;;;;7390341;19;19991;-79
2022/01/25 06:27:54;;;;;;;16.95;5.20;;;;;;;;;;7390092;19;20513;-80
2022/01/25 06:30:20;;;;;;;12.95;5.53;;;;;;;;;;7388558;19;20336;-81
2022/01/25 06:32:46;;;;;;;10.35;5.30;;;;;;;;;;7392414;19;20498;-81
2022/01/25 06:35:13;;;;;;;10.63;5.68;;;;;;;;;;7398063;19;20030;-81
2022/01/25 06:37:39;;;;;;;18.05;5.63;;;;;;;;;;7399401;19;19998;-81
2022/01/25 06:40:06;;;;;;;19.70;5.25;;;;;;;;;;7395624;19;20078;-81
2022/01/25 06:42:32;;;;;;;11.73;5.32;;;;;;;;;;7396769;19;20175;-82
2022/01/25 06:45:02;;;;;;;15.93;5.93;;;;;;;;;;7401221;19;20111;-81
2022/01/25 06:47:27;;;;;;;10.75;5.07;;;;;;;;;;7399358;19;20009;-81
2022/01/25 06:49:53;;;;;;;14.70;5.38;;;;;;;;;;7399389;19;20010;-82
2022/01/25 06:52:18;;;;;;;9.48;4.25;;;;;;;;;;7395418;19;20010;-81
2022/01/25 06:54:43;;;;;;;11.82;4.80;;;;;;;;;;7396043;19;20020;-82
2022/01/25 06:57:09;;;;;;;19.80;6.72;;;;;;;;;;7397567;19;20044;-83
2022/01/25 06:59:34;;;;;;;10.57;5.55;;;;;;;;;;7395852;19;20013;-82
2022/01/25 07:01:59;;;;;;;14.27;5.55;;;;;;;;;;7395486;19;20006;-82
2022/01/25 07:04:25;;;;;;;10.65;5.18;;;;;;;;;;7397391;19;20086;-81
2022/01/25 07:06:50;;;;;;;9.27;4.55;;;;;;;;;;7396870;19;20483;-82
2022/01/25 07:09:15;;;;;;;9.68;4.72;;;;;;;;;;7395015;19;20006;-81
2022/01/25 07:11:41;;;;;;;14.07;4.65;;;;;;;;;;7394530;19;20420;-80
2022/01/25 07:14:06;;;;;;;9.68;4.85;;;;;;;;;;7395322;19;20105;-81
2022/01/25 07:16:31;;;;;;;12.63;5.75;;;;;;;;;;7395414;19;20002;-80
2022/01/25 07:18:56;;;;;;;10.77;4.88;;;;;;;;;;7393447;19;20458;-80
2022/01/25 07:21:22;;;;;;;11.55;5.30;;;;;;;;;;7393714;19;20303;-80
2022/01/25 07:23:47;;;;;;;10.88;5.50;;;;;;;;;;7396317;19;20422;-80
2022/01/25 07:26:13;;;;;;;14.68;6.00;;;;;;;;;;7397964;19;20006;-81
2022/01/25 07:28:38;;;;;;;9.90;5.18;;;;;;;;;;7395996;19;20013;-80
2022/01/25 07:31:03;;;;;;;11.68;5.55;;;;;;;;;;7394214;19;20009;-81
2022/01/25 07:33:29;;;;;;;16.40;7.18;;;;;;;;;;7395608;19;20378;-80
2022/01/25 07:35:55;;;;;;;13.77;6.15;;;;;;;;;;7396191;19;20039;-80
2022/01/25 07:38:20;;;;;;;17.60;7.72;;;;;;;;;;7397168;19;20013;-80
2022/01/25 07:40:45;;;;;;;14.02;7.05;;;;;;;;;;7392040;19;20307;-79
2022/01/25 07:43:11;;;;;;;10.70;6.35;;;;;;;;;;7394287;19;20003;-80
2022/01/25 07:45:36;;;;;;;13.75;6.28;;;;;;;;;;7397154;19;19990;-80
2022/01/25 07:48:07;;;;;;;24.15;9.82;;;;;;;;;;7395745;19;19999;-80
2022/01/25 07:50:33;;;;;;;12.70;5.78;;;;;;;;;;7394974;19;20011;-80
2022/01/25 07:52:58;;;;;;;11.52;5.50;;;;;;;;;;7396416;19;20007;-80
2022/01/25 07:55:23;;;;;;;21.00;7.78;;;;;;;;;;7396904;19;20002;-80
2022/01/25 07:57:49;;;;;;;12.43;6.07;;;;;;;;;;7394372;19;19998;-79
2022/01/25 08:00:15;;;;;;;11.18;6.63;;;;;;;;;;7393063;19;20354;-80
2022/01/25 08:02:41;;;;;;;12.02;6.22;;;;;;;;;;7395837;19;20115;-80
2022/01/25 08:05:07;;;;;;;14.55;6.35;;;;;;;;;;7396322;19;20002;-81
2022/01/25 08:07:33;;;;;;;13.35;6.55;;;;;;;;;;7399054;19;19994;-80
2022/01/25 08:09:58;;;;;;;13.27;6.45;;;;;;;;;;7405625;19;20080;-79
2022/01/25 08:12:25;;;;;;;10.30;5.28;;;;;;;;;;7402319;19;20089;-79
2022/01/25 08:14:51;;;;;;;10.35;5.75;;;;;;;;;;7399317;19;20014;-79
2022/01/25 08:17:17;;;;;;;12.25;6.07;;;;;;;;;;7398263;19;20028;-79
2022/01/25 08:19:44;;;;;;;12.60;6.75;;;;;;;;;;7390363;19;20381;-78
2022/01/25 08:22:10;;;;;;;14.02;6.68;;;;;;;;;;7394622;19;20002;-79
2022/01/25 08:24:35;;;;;;;19.23;7.47;;;;;;;;;;7394253;19;20318;-78
2022/01/25 08:27:00;;;;;;;15.13;6.47;;;;;;;;;;7392823;19;20010;-78
2022/01/25 08:29:26;;;;;;;14.60;6.57;;;;;;;;;;7394991;19;20061;-79
2022/01/25 08:31:51;;;;;;;12.65;6.40;;;;;;;;;;7395467;19;20110;-79
2022/01/25 08:34:16;;;;;;;19.85;7.90;;;;;;;;;;7396932;19;19998;-79
2022/01/25 08:36:42;;;;;;;11.98;6.10;;;;;;;;;;7395360;19;20006;-80
2022/01/25 08:39:08;;;;;;;35.60;7.40;;;;;;;;;;7391629;19;20329;-79
2022/01/25 08:41:33;;;;;;;16.40;6.82;;;;;;;;;;7389346;19;20006;-78
2022/01/25 08:43:59;;;;;;;17.23;6.60;;;;;;;;;;7392146;19;20013;-79
2022/01/25 08:46:24;;;;;;;13.27;6.85;;;;;;;;;;7392190;19;19999;-79
2022/01/25 08:48:50;;;;;;;14.27;7.03;;;;;;;;;;7390692;19;20010;-78
2022/01/25 08:51:16;;;;;;;15.30;6.55;;;;;;;;;;7388453;19;20023;-80
2022/01/25 08:53:41;;;;;;;13.85;6.47;;;;;;;;;;7391889;19;20003;-78
2022/01/25 08:56:08;;;;;;;18.95;6.90;;;;;;;;;;7389324;19;20007;-78
2022/01/25 08:58:34;;;;;;;13.38;6.20;;;;;;;;;;7388754;19;20466;-79
2022/01/25 09:00:59;;;;;;;13.02;5.80;;;;;;;;;;7387621;19;20015;-78
2022/01/25 09:03:24;;;;;;;12.25;5.45;;;;;;;;;;7388360;19;20002;-78
2022/01/25 09:05:50;;;;;;;9.70;5.35;;;;;;;;;;7392674;19;20007;-79
2022/01/25 09:08:21;;;;;;;12.80;6.22;;;;;;;;;;7393392;19;20094;-79
2022/01/25 09:10:49;;;;;;;13.30;7.03;;;;;;;;;;7390721;19;20007;-80
2022/01/25 09:13:14;;;;;;;15.57;6.90;;;;;;;;;;7393232;19;20053;-79
2022/01/25 09:15:40;;;;;;;13.25;6.50;;;;;;;;;;7395285;19;20003;-79
2022/01/25 09:18:05;;;;;;;13.88;6.95;;;;;;;;;;7390793;19;20026;-80
2022/01/25 09:20:30;;;;;;;15.93;8.10;;;;;;;;;;7392993;19;19995;-80
2022/01/25 09:22:55;;;;;;;15.23;7.45;;;;;;;;;;7393572;19;20003;-79
2022/01/25 09:25:21;;;;;;;16.25;8.13;;;;;;;;;;7396022;19;19999;-80
2022/01/25 09:27:46;;;;;;;14.45;7.63;;;;;;;;;;7392076;19;20010;-80
2022/01/25 09:30:12;;;;;;;13.68;6.70;;;;;;;;;;7392652;19;20015;-79
2022/01/25 09:32:37;;;;;;;13.52;6.82;;;;;;;;;;7390484;19;20036;-78
2022/01/25 09:35:03;;;;;;;14.02;7.85;;;;;;;;;;7392742;19;20020;-79
2022/01/25 09:37:28;;;;;;;15.63;8.32;;;;;;;;;;7390259;19;20026;-78
2022/01/25 09:39:53;;;;;;;15.27;8.57;;;;;;;;;;7390331;19;20349;-79
2022/01/25 09:42:20;;;;;;;17.23;8.27;;;;;;;;;;7392597;19;20110;-79
2022/01/25 09:44:45;;;;;;;14.23;7.32;;;;;;;;;;7390631;19;20433;-80
2022/01/25 09:47:11;;;;;;;16.98;8.20;;;;;;;;;;7392939;19;20010;-79
2022/01/25 09:49:37;;;;;;;12.63;7.18;;;;;;;;;;7391283;19;20019;-79
2022/01/25 09:52:05;;;;;;;19.23;9.30;;;;;;;;;;7391752;19;20449;-80
2022/01/25 09:54:32;;;;;;;18.83;8.85;;;;;;;;;;7391469;19;20013;-79
2022/01/25 09:56:57;;;;;;;16.60;8.07;;;;;;;;;;7389746;19;20040;-79
2022/01/25 09:59:26;;;;;;;16.50;8.30;;;;;;;;;;7389062;19;20430;-78
2022/01/25 10:01:51;;;;;;;15.23;8.88;;;;;;;;;;7386769;19;20015;-78
2022/01/25 10:04:33;;;;;;;15.02;8.55;;;;;;;;;;7390526;19;20335;-79
2022/01/25 10:06:58;;;;;;;17.38;8.63;;;;;;;;;;7391563;19;20007;-79
2022/01/25 10:09:25;;;;;;;18.70;8.85;;;;;;;;;;7398551;19;20002;-79
2022/01/25 10:11:50;;;;;;;16.58;8.55;;;;;;;;;;7396518;19;20516;-78
2022/01/25 10:14:15;;;;;;;17.38;8.93;;;;;;;;;;7395769;19;20006;-78
2022/01/25 10:16:43;;;;;;;17.42;8.85;;;;;;;;;;7396024;19;19994;-78
2022/01/25 10:19:11;;;;;;;18.98;9.45;;;;;;;;;;7399255;19;20354;-79
2022/01/25 10:21:42;;;;;;;17.58;9.57;;;;;;;;;;7395359;19;20072;-78
2022/01/25 10:24:27;;;;;;;18.83;9.50;;;;;;;;;;7398372;19;20002;-79
2022/01/25 10:26:54;;;;;;;17.30;8.75;;;;;;;;;;7397644;19;20002;-80
2022/01/25 10:29:27;;;;;;;19.83;9.68;;;;;;;;;;7395264;19;20081;-80
2022/01/25 10:32:02;;;;;;;17.52;9.32;;;;;;;;;;7393026;19;20006;-78
2022/01/25 10:34:49;;;;;;;20.35;9.52;;;;;;;;;;7396337;19;20019;-79
2022/01/25 10:37:21;;;;;;;18.27;9.32;;;;;;;;;;7396037;19;20324;-79
2022/01/25 10:39:49;;;;;;;18.73;9.80;;;;;;;;;;7390763;19;20110;-79
2022/01/25 10:42:20;;;;;;;22.25;10.77;;;;;;;;;;7394285;19;20010;-79
2022/01/25 10:44:53;;;;;;;21.38;10.15;;;;;;;;;;7393731;19;20023;-78
2022/01/25 10:47:36;;;;;;;17.85;9.98;;;;;;;;;;7394523;19;20006;-78
2022/01/25 10:50:12;;;;;;;20.00;10.05;;;;;;;;;;7392408;19;20014;-78
2022/01/25 10:52:38;;;;;;;19.70;10.07;;;;;;;;;;7393220;19;20468;-79
2022/01/25 10:55:06;;;;;;;22.70;10.55;;;;;;;;;;7395202;19;20149;-78
2022/01/25 10:57:32;;;;;;;19.75;10.43;;;;;;;;;;7397733;19;20005;-78
2022/01/25 11:00:00;;;;;;;21.70;11.05;;;;;;;;;;7389849;19;20073;-79
2022/01/25 11:02:26;;;;;;;19.52;10.13;;;;;;;;;;7397693;19;20006;-79
2022/01/25 11:05:02;;;;;;;19.33;9.88;;;;;;;;;;7397574;19;20019;-80
2022/01/25 11:07:36;;;;;;;19.33;9.10;;;;;;;;;;7401950;19;20094;-79
2022/01/25 11:10:03;;;;;;;21.67;11.15;;;;;;;;;;7390575;19;20039;-78
2022/01/25 11:12:35;;;;;;;24.15;10.80;;;;;;;;;;7393793;19;20014;-78
2022/01/25 11:15:02;;;;;;;21.20;11.15;;;;;;;;;;7391588;19;20002;-79
2022/01/25 11:17:29;;;;;;;21.92;11.50;;;;;;;;;;7394405;19;20040;-78
2022/01/25 11:19:56;;;;;;;22.63;11.13;;;;;;;;;;7388366;19;20090;-80
2022/01/25 11:22:22;;;;;;;21.23;11.18;;;;;;;;;;7395170;19;20062;-80
2022/01/25 11:24:52;;;;;;;18.58;10.15;;;;;;;;;;7394121;19;20007;-80
2022/01/25 11:27:19;;;;;;;17.30;9.50;;;;;;;;;;7391921;19;20006;-79
2022/01/25 11:29:47;;;;;;;17.15;9.20;;;;;;;;;;7394418;19;20054;-79
2022/01/25 11:32:15;;;;;;;17.50;9.85;;;;;;;;;;7394954;19;19998;-80
2022/01/25 11:34:43;;;;;;;18.33;8.98;;;;;;;;;;7394735;19;20013;-79
2022/01/25 11:37:09;;;;;;;18.70;10.43;;;;;;;;;;7394305;19;20023;-78
2022/01/25 11:39:39;;;;;;;20.52;9.63;;;;;;;;;;7391311;19;20011;-78
2022/01/25 11:42:14;;;;;;;18.88;9.55;;;;;;;;;;7394014;19;20007;-79
2022/01/25 11:44:52;;;;;;;16.17;8.95;;;;;;;;;;7394216;19;20355;-79
2022/01/25 11:47:20;;;;;;;19.35;9.57;;;;;;;;;;7395154;19;20105;-79
2022/01/25 11:50:06;;;;;;;17.48;9.23;;;;;;;;;;7394109;19;20218;-79
2022/01/25 11:52:32;;;;;;;17.50;9.55;;;;;;;;;;7397463;19;20038;-78
2022/01/25 11:55:16;;;;;;;17.55;9.70;;;;;;;;;;7393395;19;20049;-78
2022/01/25 11:58:06;;;;;;;21.85;10.13;;;;;;;;;;7395150;19;20006;-79
2022/01/25 12:00:44;;;;;;;18.38;9.25;;;;;;;;;;7390845;19;20046;-79
2022/01/25 12:03:48;;;;;;;16.92;9.20;;;;;;;;;;7393361;19;20007;-79
2022/01/25 12:06:27;;;;;;;17.38;8.93;;;;;;;;;;7394563;19;20006;-80
2022/01/25 12:09:31;;;;;;;19.55;10.43;;;;;;;;;;7394304;19;20016;-78
2022/01/25 12:12:06;;;;;;;19.50;9.80;;;;;;;;;;7391843;19;20031;-79
2022/01/25 12:14:54;;;;;;;20.85;10.07;;;;;;;;;;7390060;19;20007;-79
2022/01/25 12:17:24;;;;;;;18.75;10.40;;;;;;;;;;7391982;19;20017;-81
2022/01/25 12:19:58;;;;;;;16.63;9.63;;;;;;;;;;7388899;19;20129;-77
2022/01/25 12:25:32;;;;;;;21.63;10.20;;;;;;;;;;7392034;19;19991;-76
2022/01/25 12:28:03;;;;;;;17.55;9.88;;;;;;;;;;7390702;19;20022;-80
2022/01/25 12:30:32;;;;;;;16.92;9.45;;;;;;;;;;7388914;19;20011;-79
2022/01/25 12:33:12;;;;;;;18.55;9.70;;;;;;;;;;7392641;19;20040;-79
2022/01/25 12:35:56;;;;;;;20.63;10.27;;;;;;;;;;7391681;19;20018;-79
2022/01/25 12:38:38;;;;;;;20.45;10.35;;;;;;;;;;7391324;19;20065;-79
2022/01/25 12:41:10;;;;;;;17.27;10.07;;;;;;;;;;7389818;19;20006;-79
2022/01/25 12:43:40;;;;;;;18.35;9.68;;;;;;;;;;7389107;19;20150;-79
2022/01/25 12:46:14;;;;;;;17.10;9.50;;;;;;;;;;7393459;19;20002;-78
2022/01/25 12:48:47;;;;;;;17.30;9.10;;;;;;;;;;7391251;19;20048;-79
2022/01/25 12:51:15;;;;;;;15.63;9.10;;;;;;;;;;7392780;19;20163;-79
2022/01/25 12:53:44;;;;;;;16.50;9.40;;;;;;;;;;7392339;19;20007;-80
2022/01/25 12:56:16;;;;;;;18.17;9.40;;;;;;;;;;7390155;19;20023;-80
2022/01/25 12:58:42;;;;;;;20.95;10.60;;;;;;;;;;7389964;19;20006;-78
2022/01/25 13:01:15;;;;;;;16.45;9.05;;;;;;;;;;7391350;19;20015;-79
2022/01/25 13:03:52;;;;;;;20.30;9.40;;;;;;;;;;7393170;19;20006;-78
2022/01/25 13:06:23;;;;;;;20.42;10.27;;;;;;;;;;7391320;19;19997;-79
2022/01/25 13:08:59;;;;;;;18.83;10.23;;;;;;;;;;7390994;19;20049;-81
2022/01/25 13:11:42;;;;;;;17.92;9.73;;;;;;;;;;7388905;19;20014;-79
2022/01/25 13:17:00;;;;;;;21.00;10.73;;;;;;;;;;7391120;19;20006;-79
2022/01/25 13:19:40;;;;;;;18.27;9.73;;;;;;;;;;7384917;19;20006;-79
2022/01/25 13:22:12;;;;;;;17.52;9.00;;;;;;;;;;7387702;19;20013;-79
2022/01/25 13:24:47;;;;;;;16.33;8.80;;;;;;;;;;7391092;19;20121;-79
2022/01/25 13:27:16;;;;;;;17.80;10.32;;;;;;;;;;7389439;19;20114;-79
2022/01/25 13:32:36;;;;;;;17.50;9.25;;;;;;;;;;7391200;19;20017;-78
2022/01/25 13:35:23;;;;;;;16.17;9.30;;;;;;;;;;7388745;19;20040;-78
2022/01/25 13:38:09;;;;;;;16.08;8.35;;;;;;;;;;7389505;19;20366;-80
2022/01/25 13:46:30;;;;;;;18.40;10.43;;;;;;;;;;7392848;19;20035;-80
2022/01/25 13:48:58;;;;;;;18.90;10.13;;;;;;;;;;7395527;19;20036;-79
2022/01/25 13:51:26;;;;;;;18.02;10.00;;;;;;;;;;7397076;19;20007;-79
2022/01/25 13:53:57;;;;;;;19.52;9.88;;;;;;;;;;7400713;19;20410;-78
2022/01/25 13:56:26;;;;;;;20.63;10.57;;;;;;;;;;7400374;19;20113;-79
2022/01/25 13:58:52;;;;;;;19.95;9.88;;;;;;;;;;7398427;19;20010;-80
2022/01/25 14:01:20;;;;;;;18.10;9.15;;;;;;;;;;7398441;19;20018;-79
2022/01/25 14:03:53;;;;;;;18.73;9.40;;;;;;;;;;7400393;19;20006;-81
2022/01/25 14:06:28;;;;;;;20.40;9.70;;;;;;;;;;7398714;19;20035;-78
2022/01/25 14:09:00;;;;;;;19.95;9.63;;;;;;;;;;7398249;19;20080;-79
2022/01/25 14:21:37;;;;;;;17.27;9.68;;;;;;;;;;7396319;19;20010;-81
2022/01/25 14:23:26;;;;;;;19.42;9.18;;;;;;;;;;7396436;19;20032;-81
2022/01/25 14:25:34;;;;;;;15.43;8.38;;;;;;;;;;7395392;19;20015;-77
2022/01/25 14:28:01;;;;;;;18.45;9.23;;;;;;;;;;7395592;19;20007;-78
2022/01/25 14:30:31;;;;;;;18.98;9.18;;;;;;;;;;7392440;19;20003;-78
2022/01/25 14:33:10;;;;;;;21.60;9.68;;;;;;;;;;7397274;19;20011;-79
2022/01/25 14:35:42;;;;;;;19.23;8.68;;;;;;;;;;7396432;19;20011;-78
2022/01/25 14:38:14;;;;;;;19.05;9.05;;;;;;;;;;7396892;19;20018;-79
2022/01/25 14:40:40;;;;;;;17.63;8.93;;;;;;;;;;7395582;19;20012;-79
2022/01/25 14:43:05;;;;;;;17.83;8.40;;;;;;;;;;7395810;19;20442;-79
2022/01/25 14:45:30;;;;;;;18.80;9.25;;;;;;;;;;7397665;19;20069;-79
2022/01/25 14:47:57;;;;;;;19.83;9.05;;;;;;;;;;7396514;19;20007;-78
2022/01/25 14:50:25;;;;;;;19.20;9.07;;;;;;;;;;7395552;19;20080;-79
2022/01/25 14:53:09;;;;;;;17.17;8.85;;;;;;;;;;7395707;19;20065;-80
2022/01/25 14:55:37;;;;;;;20.60;9.25;;;;;;;;;;7393044;19;20017;-79
2022/01/25 15:00:56;;;;;;;17.58;8.52;;;;;;;;;;7394816;19;20011;-79
2022/01/25 15:03:24;;;;;;;16.48;8.38;;;;;;;;;;7396112;19;20007;-79
2022/01/25 15:05:51;;;;;;;18.17;8.10;;;;;;;;;;7395521;19;20022;-79
2022/01/25 15:08:18;;;;;;;19.58;8.63;;;;;;;;;;7392679;19;20027;-80
2022/01/25 15:10:45;;;;;;;18.23;8.98;;;;;;;;;;7394986;19;20337;-79
2022/01/25 15:13:12;;;;;;;28.17;10.45;;;;;;;;;;7393639;19;20003;-79
2022/01/25 15:15:56;;;;;;;22.38;10.07;;;;;;;;;;7393890;19;20070;-79
2022/01/25 15:18:30;;;;;;;18.42;8.93;;;;;;;;;;7394776;19;20011;-79
2022/01/25 15:20:58;;;;;;;23.02;9.85;;;;;;;;;;7394172;19;20456;-79
2022/01/25 15:23:24;;;;;;;22.35;10.38;;;;;;;;;;7395800;19;20474;-79
2022/01/25 15:25:57;;;;;;;25.50;10.55;;;;;;;;;;7394871;19;20049;-78
2022/01/25 15:28:39;;;;;;;25.60;10.93;;;;;;;;;;7393934;19;20040;-80
2022/01/25 15:31:07;;;;;;;19.42;9.07;;;;;;;;;;7393515;19;19998;-79
2022/01/25 15:33:33;;;;;;;21.25;9.60;;;;;;;;;;7394162;19;20002;-80
2022/01/25 15:36:00;;;;;;;21.95;10.10;;;;;;;;;;7394524;19;20020;-80
2022/01/25 15:38:25;;;;;;;17.75;8.55;;;;;;;;;;7393162;19;20003;-78
2022/01/25 15:40:50;;;;;;;18.30;9.18;;;;;;;;;;7391379;19;20396;-79
2022/01/25 15:43:22;;;;;;;18.52;8.57;;;;;;;;;;7391933;19;20026;-78
2022/01/25 15:46:18;;;;;;;23.55;9.85;;;;;;;;;;7391817;19;20358;-80
2022/01/25 15:48:34;;;;;;;19.77;8.57;;;;;;;;;;7390720;19;20013;-79
2022/01/25 15:51:00;;;;;;;17.20;8.43;;;;;;;;;;7389159;19;20115;-79
2022/01/25 15:53:27;;;;;;;19.60;9.27;;;;;;;;;;7390768;19;20078;-78
2022/01/25 15:55:52;;;;;;;19.25;9.27;;;;;;;;;;7394345;19;20014;-79
2022/01/25 15:58:19;;;;;;;17.52;8.38;;;;;;;;;;7395792;19;20606;-81
2022/01/25 16:00:47;;;;;;;14.85;7.45;;;;;;;;;;7398401;19;20007;-81
2022/01/25 16:03:18;;;;;;;19.33;8.18;;;;;;;;;;7396996;19;20006;-80
2022/01/25 16:05:44;;;;;;;17.20;8.07;;;;;;;;;;7400607;19;20112;-80
2022/01/25 16:08:10;;;;;;;18.85;8.93;;;;;;;;;;7400062;19;20018;-79
2022/01/25 16:10:37;;;;;;;17.13;8.13;;;;;;;;;;7392768;19;20430;-80
2022/01/25 16:13:03;;;;;;;19.25;8.55;;;;;;;;;;7392600;19;20127;-79
2022/01/25 16:15:28;;;;;;;20.00;8.98;;;;;;;;;;7395395;19;20023;-80
2022/01/25 16:17:54;;;;;;;32.75;14.38;;;;;;;;;;7396178;19;20109;-79
2022/01/25 16:20:19;;;;;;;20.98;9.15;;;;;;;;;;7391974;19;20027;-80
2022/01/25 16:22:44;;;;;;;20.77;10.00;;;;;;;;;;7387661;19;19994;-80
2022/01/25 16:25:10;;;;;;;18.75;8.45;;;;;;;;;;7398333;19;20007;-80
2022/01/25 16:27:37;;;;;;;17.58;8.57;;;;;;;;;;7394943;19;20518;-79
2022/01/25 16:30:03;;;;;;;17.63;7.07;;;;;;;;;;7388049;19;20078;-78
2022/01/25 16:32:34;;;;;;;19.10;8.45;;;;;;;;;;7390307;19;20037;-80
2022/01/25 16:34:59;;;;;;;16.52;7.93;;;;;;;;;;7391268;19;20013;-80
2022/01/25 16:37:25;;;;;;;16.50;8.40;;;;;;;;;;7391908;19;20046;-80
2022/01/25 16:39:51;;;;;;;15.77;7.30;;;;;;;;;;7387005;19;20156;-79
2022/01/25 16:42:17;;;;;;;17.67;8.38;;;;;;;;;;7388234;19;20018;-80
2022/01/25 16:44:44;;;;;;;15.32;7.70;;;;;;;;;;7388993;19;20010;-80